Aeroporto :
LOGIN :

Iscrizione | Disclaimer

   EN    FR    IT 

 










Sommario :    VFR   VFR Marginale   IFR   IFR Intensivo   IFR Molto Intensivo
Visibilità : 
Base nubi : 
>= 8 km
>= 3000ft
5 / 8 km
1000 / 3000 ft
1500m / 5 km
500 / 1000 ft
800 / 1500m
200 / 500 ft
< 800m
< 200 ft
Simboli :   Temporali  Nebbia  Neve Forte  Precipitazioni Forti  Vento > 20 kt
SIGMETs :   Varie  Temporali  Ghiacco  Turbolenza  Onda orograficha  Ceneri Vulcaniche






- Altitudine del aeroporto : 16 ft
- Codice IATA : EAS


LESO - San Sebastian Fuenterrabia

ULTIMO METAR :
  • 211600Z 23006KT 200V260 9999 FEW067 15/05 Q1005

METARs OBSOLETI :
  • 211530Z 21009KT 170V240 9999 FEW067 15/05 Q1004
  • 211500Z 20010KT 180V240 9999 FEW068 15/06 Q1004
  • 211430Z 21009KT 190V270 9999 FEW050 SCT065 15/06 Q1004
  • 211400Z 21012KT 190V250 9999 FEW048 SCT065 15/05 Q1004
  • 211330Z 22012KT 190V260 9999 FEW050 SCT065 16/06 Q1004
  • 211300Z 23009KT 190V270 9999 FEW050 SCT062 16/05 Q1004

TAF TAF LESO
Valido dal 21 a 12 ore il 22 a 12 ore UTC


211100Z 2112/2212 24009KT CAVOK TX16/2114Z TN08/2122Z



MetMap, La meteo Aeronautica in un colpo d'occhio ! - Copyright ORBIFLY Dicembre 2007 - Disclaimer

ORBIFLY MET'MAP TEAM :

Programmazione e sviluppo : Alexandra Zaïnal
Concezione e sviluppo : Baudouin d'Aumeries
Co-Programmazione e sviluppo : Marc-Olivier Méhu
Supporto tecnico e logistico : Manuel Goepfert
Aiuto per la traduzione : Arnaldo La Scala

Contatto : metmap@orbifly.com




FONTI E CREDITI :

   NOAA